createdAt,value
2022-08-20T00:01:02.405Z,99.99
2022-08-20T00:01:58.890Z,99.99
2022-08-20T00:02:58.967Z,99.99
2022-08-20T00:03:58.857Z,99.99
2022-08-20T00:04:58.816Z,99.99
2022-08-20T00:05:58.782Z,99.99
2022-08-20T00:06:58.805Z,99.99
2022-08-20T00:07:58.764Z,99.99
2022-08-20T00:08:58.819Z,99.99
2022-08-20T00:09:58.740Z,99.99
2022-08-20T00:10:58.750Z,99.99
2022-08-20T00:11:58.741Z,99.99
2022-08-20T00:12:58.765Z,99.99
2022-08-20T00:13:58.705Z,99.99
2022-08-20T00:14:58.695Z,99.99
2022-08-20T00:15:58.675Z,99.99
2022-08-20T00:17:00.052Z,99.99
2022-08-20T00:17:58.652Z,99.99
2022-08-20T00:18:58.646Z,99.99
2022-08-20T00:19:58.640Z,99.99
2022-08-20T00:20:58.667Z,99.99
2022-08-20T00:21:58.707Z,99.99
2022-08-20T00:22:58.709Z,99.99
2022-08-20T00:23:58.590Z,99.99
2022-08-20T00:24:58.605Z,99.99
2022-08-20T00:25:58.577Z,99.99
2022-08-20T00:26:58.582Z,99.99
2022-08-20T00:27:58.647Z,99.99
2022-08-20T00:28:58.690Z,99.99
2022-08-20T00:29:58.840Z,99.99
2022-08-20T00:30:58.664Z,99.99
2022-08-20T00:31:58.555Z,99.99
2022-08-20T00:32:58.499Z,99.99
2022-08-20T00:33:58.483Z,99.99
2022-08-20T00:34:58.517Z,99.99
2022-08-20T00:35:58.461Z,99.99
2022-08-20T00:36:58.470Z,99.99
2022-08-20T00:38:00.714Z,99.99
2022-08-20T00:38:58.427Z,99.99
2022-08-20T00:39:58.494Z,99.99
2022-08-20T00:40:58.405Z,99.99
2022-08-20T00:41:58.391Z,99.99
2022-08-20T00:42:58.400Z,99.99
2022-08-20T00:43:58.377Z,99.99
2022-08-20T00:44:58.364Z,99.99
2022-08-20T00:45:58.388Z,99.99
2022-08-20T00:46:58.339Z,99.99
2022-08-20T00:47:58.450Z,99.99
2022-08-20T00:48:58.318Z,99.99
2022-08-20T00:49:58.309Z,99.99
2022-08-20T00:50:58.295Z,99.99
2022-08-20T00:51:58.349Z,99.99
2022-08-20T00:52:58.316Z,99.99
2022-08-20T00:53:58.266Z,99.99
2022-08-20T00:54:58.256Z,99.99
2022-08-20T00:55:58.268Z,99.99
2022-08-20T00:56:58.238Z,99.99
2022-08-20T00:58:00.750Z,99.99
2022-08-20T00:58:58.207Z,99.99
2022-08-20T00:59:58.195Z,99.99
2022-08-20T01:00:58.186Z,99.99
2022-08-20T01:01:58.271Z,99.99
2022-08-20T01:02:58.168Z,99.99
2022-08-20T01:03:58.165Z,99.99
2022-08-20T01:04:58.146Z,99.99
2022-08-20T01:05:58.140Z,99.99
2022-08-20T01:06:58.131Z,99.99
2022-08-20T01:07:58.290Z,99.99
2022-08-20T01:08:58.101Z,99.99
2022-08-20T01:09:59.483Z,99.99
2022-08-20T01:10:58.101Z,99.99
2022-08-20T01:11:58.066Z,99.99
2022-08-20T01:12:59.667Z,99.99
2022-08-20T01:13:58.051Z,99.99
2022-08-20T01:14:58.042Z,99.99
2022-08-20T01:15:58.042Z,99.99
2022-08-20T01:16:58.016Z,99.99
2022-08-20T01:17:58.009Z,99.99
2022-08-20T01:18:58.016Z,99.99
2022-08-20T01:19:57.983Z,99.99
2022-08-20T01:20:57.971Z,99.99
2022-08-20T01:21:57.991Z,99.99
2022-08-20T01:22:57.953Z,99.99
2022-08-20T01:23:57.947Z,99.99
2022-08-20T01:24:57.930Z,99.99
2022-08-20T01:25:57.919Z,99.99
2022-08-20T01:26:57.906Z,99.99
2022-08-20T01:27:58.194Z,99.99
2022-08-20T01:28:57.891Z,99.99
2022-08-20T01:29:57.873Z,99.99
2022-08-20T01:30:57.871Z,99.99
2022-08-20T01:31:57.853Z,99.99
2022-08-20T01:32:57.849Z,99.99
2022-08-20T01:33:57.986Z,99.99
2022-08-20T01:34:57.822Z,99.99
2022-08-20T01:35:57.815Z,99.99
2022-08-20T01:36:57.815Z,99.99
2022-08-20T01:37:57.954Z,99.99
2022-08-20T01:38:57.780Z,99.99
2022-08-20T01:39:57.880Z,99.99
2022-08-20T01:40:57.755Z,99.99
2022-08-20T01:41:57.746Z,99.99
2022-08-20T01:42:59.182Z,99.99
2022-08-20T01:43:58.515Z,99.99
2022-08-20T01:44:57.712Z,99.99
2022-08-20T01:45:57.740Z,99.99
2022-08-20T01:46:57.945Z,99.99
2022-08-20T01:47:58.066Z,99.99
2022-08-20T01:48:57.679Z,99.99
2022-08-20T01:49:58.453Z,99.99
2022-08-20T01:50:57.648Z,99.99
2022-08-20T01:51:57.657Z,99.99
2022-08-20T01:52:57.633Z,99.99
2022-08-20T01:53:57.624Z,99.99
2022-08-20T01:54:57.608Z,99.99
2022-08-20T01:55:57.594Z,99.99
2022-08-20T01:56:57.588Z,99.99
2022-08-20T01:57:57.790Z,99.99
2022-08-20T01:58:58.989Z,99.99
2022-08-20T01:59:57.576Z,99.99
2022-08-20T02:00:57.546Z,99.99
2022-08-20T02:01:57.597Z,99.99
2022-08-20T02:02:57.522Z,99.99
2022-08-20T02:03:57.538Z,99.99
2022-08-20T02:04:57.501Z,99.99
2022-08-20T02:05:57.511Z,99.99
2022-08-20T02:06:58.031Z,99.99
2022-08-20T02:07:57.501Z,99.99
2022-08-20T02:08:57.494Z,99.99
2022-08-20T02:09:57.487Z,99.99
2022-08-20T02:10:57.440Z,99.99
2022-08-20T02:11:57.452Z,99.99
2022-08-20T02:12:57.409Z,99.99
2022-08-20T02:13:57.398Z,99.99
2022-08-20T02:14:57.396Z,99.99
2022-08-20T02:15:57.398Z,99.99
2022-08-20T02:16:57.368Z,99.99
2022-08-20T02:17:57.437Z,99.99
2022-08-20T02:18:57.361Z,99.99
2022-08-20T02:19:57.341Z,99.99
2022-08-20T02:20:57.327Z,99.99
2022-08-20T02:21:57.360Z,99.99
2022-08-20T02:22:57.301Z,99.99
2022-08-20T02:23:57.306Z,99.99
2022-08-20T02:24:57.296Z,99.99
2022-08-20T02:25:57.274Z,99.99
2022-08-20T02:26:57.261Z,99.99
2022-08-20T02:27:57.449Z,99.99
2022-08-20T02:28:57.239Z,99.99
2022-08-20T02:29:57.380Z,99.99
2022-08-20T02:30:57.230Z,99.99
2022-08-20T02:32:32.322Z,99.99
2022-08-20T02:32:58.197Z,99.99
2022-08-20T02:34:21.827Z,99.99
2022-08-20T02:34:58.205Z,99.99
2022-08-20T02:35:57.169Z,99.99
2022-08-20T02:36:57.741Z,99.99
2022-08-20T02:37:57.439Z,99.99
2022-08-20T02:38:57.129Z,99.99
2022-08-20T02:39:57.162Z,99.99
2022-08-20T02:40:57.167Z,99.99
2022-08-20T02:41:57.125Z,99.99
2022-08-20T02:42:57.105Z,99.99
2022-08-20T02:43:57.078Z,99.99
2022-08-20T02:44:57.079Z,99.99
2022-08-20T02:45:57.063Z,99.99
2022-08-20T02:46:57.068Z,99.99
2022-08-20T02:47:57.395Z,99.99
2022-08-20T02:48:57.031Z,99.99
2022-08-20T02:49:57.021Z,99.99
2022-08-20T02:50:57.008Z,99.99
2022-08-20T02:51:56.991Z,99.99
2022-08-20T02:52:57.045Z,99.99
2022-08-20T02:53:56.971Z,99.99
2022-08-20T02:54:56.954Z,99.99
2022-08-20T02:55:56.953Z,99.99
2022-08-20T02:56:56.937Z,99.99
2022-08-20T02:57:57.942Z,99.99
2022-08-20T02:58:56.936Z,99.99
2022-08-20T02:59:56.906Z,99.99
2022-08-20T03:00:56.987Z,99.99
2022-08-20T03:02:00.458Z,99.99
2022-08-20T03:02:56.873Z,99.99
2022-08-20T03:03:56.859Z,99.99
2022-08-20T03:04:56.873Z,99.99
2022-08-20T03:05:56.838Z,99.99
2022-08-20T03:06:56.832Z,99.99
2022-08-20T03:07:57.136Z,99.99
2022-08-20T03:08:56.808Z,99.99
2022-08-20T03:09:56.795Z,99.99
2022-08-20T03:10:56.822Z,99.99
2022-08-20T03:11:56.781Z,99.99
2022-08-20T03:12:56.768Z,99.99
2022-08-20T03:13:56.786Z,99.99
2022-08-20T03:14:56.740Z,99.99
2022-08-20T03:15:58.991Z,99.99
2022-08-20T03:16:56.768Z,99.99
2022-08-20T03:17:56.925Z,99.99
2022-08-20T03:18:56.703Z,99.99
2022-08-20T03:19:56.710Z,99.99
2022-08-20T03:20:56.675Z,99.99
2022-08-20T03:21:56.666Z,99.99
2022-08-20T03:22:56.672Z,99.99
2022-08-20T03:23:56.651Z,99.99
2022-08-20T03:24:56.636Z,99.99
2022-08-20T03:25:56.644Z,99.99
2022-08-20T03:26:56.627Z,99.99
2022-08-20T03:27:56.915Z,99.99
2022-08-20T03:28:56.638Z,99.99
2022-08-20T03:29:56.581Z,99.99
2022-08-20T03:30:56.573Z,99.99
2022-08-20T03:31:56.581Z,99.99
2022-08-20T03:32:56.549Z,99.99
2022-08-20T03:33:56.554Z,99.99
2022-08-20T03:34:56.564Z,99.99
2022-08-20T03:35:56.519Z,99.99
2022-08-20T03:36:56.508Z,99.99
2022-08-20T03:37:56.542Z,99.99
2022-08-20T03:38:56.484Z,99.99
2022-08-20T03:39:56.521Z,99.99
2022-08-20T03:40:56.486Z,99.99
2022-08-20T03:41:56.476Z,99.99
2022-08-20T03:42:56.611Z,99.99
2022-08-20T03:43:56.494Z,99.99
2022-08-20T03:44:59.305Z,99.99
2022-08-20T03:45:56.410Z,99.99
2022-08-20T03:46:56.429Z,99.99
2022-08-20T03:47:56.574Z,99.99
2022-08-20T03:48:59.911Z,99.99
2022-08-20T03:49:56.365Z,99.99
2022-08-20T03:50:56.353Z,99.99
2022-08-20T03:51:58.313Z,99.99
2022-08-20T03:52:56.371Z,99.99
2022-08-20T03:53:56.345Z,99.99
2022-08-20T03:54:56.315Z,99.99
2022-08-20T03:56:00.435Z,99.99
2022-08-20T03:56:57.303Z,99.99
2022-08-20T03:57:56.475Z,99.99
2022-08-20T03:58:56.294Z,99.99
2022-08-20T03:59:58.407Z,99.99
2022-08-20T04:00:56.321Z,99.99
2022-08-20T04:01:56.275Z,99.99
2022-08-20T04:02:56.231Z,99.99
2022-08-20T04:03:56.218Z,99.99
2022-08-20T04:04:56.224Z,99.99
2022-08-20T04:05:56.206Z,99.99
2022-08-20T04:06:56.179Z,99.99
2022-08-20T04:07:56.419Z,99.99
2022-08-20T04:08:57.168Z,99.99
2022-08-20T04:09:56.161Z,99.99
2022-08-20T04:10:56.193Z,99.99
2022-08-20T04:11:56.134Z,99.99
2022-08-20T04:12:56.119Z,99.99
2022-08-20T04:13:56.107Z,99.99
2022-08-20T04:14:56.105Z,99.99
2022-08-20T04:15:56.101Z,99.99
2022-08-20T04:16:56.120Z,99.99
2022-08-20T04:17:56.274Z,99.99
2022-08-20T04:19:02.011Z,99.99
2022-08-20T04:19:57.040Z,99.99
2022-08-20T04:20:56.039Z,99.99
2022-08-20T04:21:56.031Z,99.99
2022-08-20T04:22:59.217Z,99.99
2022-08-20T04:23:55.998Z,99.99
2022-08-20T04:24:55.989Z,99.99
2022-08-20T04:25:56.530Z,99.99
2022-08-20T04:26:55.977Z,99.99
2022-08-20T04:27:56.172Z,99.99
2022-08-20T04:28:55.962Z,99.99
2022-08-20T04:29:56.785Z,99.99
2022-08-20T04:30:55.958Z,99.99
2022-08-20T04:31:55.934Z,99.99
2022-08-20T04:32:55.940Z,99.99
2022-08-20T04:33:55.892Z,99.99
2022-08-20T04:34:55.882Z,99.99
2022-08-20T04:35:55.910Z,99.99
2022-08-20T04:36:55.859Z,99.99
2022-08-20T04:37:56.026Z,99.99
2022-08-20T04:38:55.839Z,99.99
2022-08-20T04:39:55.884Z,99.99
2022-08-20T04:40:55.873Z,99.99
2022-08-20T04:41:55.803Z,99.99
2022-08-20T04:42:55.793Z,99.99
2022-08-20T04:43:55.803Z,99.99
2022-08-20T04:44:55.769Z,99.99
2022-08-20T04:45:55.761Z,99.99
2022-08-20T04:46:55.777Z,99.99
2022-08-20T04:47:55.914Z,99.99
2022-08-20T04:48:55.743Z,99.99
2022-08-20T04:49:57.453Z,99.99
2022-08-20T04:50:55.722Z,99.99
2022-08-20T04:51:55.701Z,99.99
2022-08-20T04:52:55.719Z,99.99
2022-08-20T04:53:55.692Z,99.99
2022-08-20T04:54:55.699Z,99.99
2022-08-20T04:55:55.655Z,99.99
2022-08-20T04:56:55.648Z,99.99
2022-08-20T04:57:55.779Z,99.99
2022-08-20T04:58:55.674Z,99.99
2022-08-20T04:59:59.356Z,99.99
2022-08-20T05:00:55.642Z,99.99
2022-08-20T05:01:56.592Z,99.99
2022-08-20T05:02:55.582Z,99.99
2022-08-20T05:03:55.578Z,99.99
2022-08-20T05:04:55.574Z,99.99
2022-08-20T05:05:55.550Z,99.99
2022-08-20T05:06:55.607Z,99.99
2022-08-20T05:07:55.688Z,99.99
2022-08-20T05:08:55.523Z,99.99
2022-08-20T05:09:55.511Z,99.99
2022-08-20T05:11:07.214Z,99.99
2022-08-20T05:11:56.492Z,99.99
2022-08-20T05:12:57.031Z,99.99
2022-08-20T05:13:55.460Z,99.99
2022-08-20T05:14:55.449Z,99.99
2022-08-20T05:15:55.437Z,99.99
2022-08-20T05:16:55.468Z,99.99
2022-08-20T05:17:55.567Z,99.99
2022-08-20T05:18:55.416Z,99.99
2022-08-20T05:19:55.418Z,99.99
2022-08-20T05:20:55.393Z,99.99
2022-08-20T05:21:55.387Z,99.99
2022-08-20T05:22:55.375Z,99.99
2022-08-20T05:23:55.360Z,99.99
2022-08-20T05:24:55.365Z,99.99
2022-08-20T05:25:55.329Z,99.99
2022-08-20T05:26:55.326Z,99.99
2022-08-20T05:27:55.319Z,99.99
2022-08-20T05:28:58.571Z,99.99
2022-08-20T05:29:55.286Z,99.99
2022-08-20T05:30:55.297Z,99.99
2022-08-20T05:31:55.264Z,99.99
2022-08-20T05:32:55.278Z,99.99
2022-08-20T05:33:55.243Z,99.99
2022-08-20T05:34:55.233Z,99.99
2022-08-20T05:35:55.223Z,99.99
2022-08-20T05:36:55.344Z,99.99
2022-08-20T05:37:55.394Z,99.99
2022-08-20T05:38:55.203Z,99.99
2022-08-20T05:39:55.206Z,99.99
2022-08-20T05:40:55.164Z,99.99
2022-08-20T05:41:55.158Z,99.99
2022-08-20T05:42:55.159Z,99.99
2022-08-20T05:43:55.133Z,99.99
2022-08-20T05:44:55.140Z,99.99
2022-08-20T05:45:56.787Z,99.99
2022-08-20T05:46:55.102Z,99.99
2022-08-20T05:47:56.695Z,99.99
2022-08-20T05:48:55.084Z,99.99
2022-08-20T05:49:55.084Z,99.99
2022-08-20T05:50:55.070Z,99.99
2022-08-20T05:51:55.051Z,99.99
2022-08-20T05:52:55.037Z,99.99
2022-08-20T05:53:55.023Z,99.99
2022-08-20T05:54:55.015Z,99.99
2022-08-20T05:55:55.041Z,99.99
2022-08-20T05:56:54.991Z,99.99
2022-08-20T05:57:55.056Z,99.99
2022-08-20T05:58:54.973Z,99.99
2022-08-20T05:59:54.959Z,99.99
2022-08-20T06:00:55.039Z,99.99
2022-08-20T06:01:54.970Z,99.99
2022-08-20T06:02:54.966Z,99.99
2022-08-20T06:03:54.919Z,99.99
2022-08-20T06:04:56.216Z,99.99
2022-08-20T06:05:54.895Z,99.99
2022-08-20T06:06:54.887Z,99.99
2022-08-20T06:07:55.051Z,99.99
2022-08-20T06:08:55.864Z,99.99
2022-08-20T06:09:54.885Z,99.99
2022-08-20T06:10:54.854Z,99.99
2022-08-20T06:11:54.831Z,99.99
2022-08-20T06:12:54.816Z,99.99
2022-08-20T06:13:54.830Z,99.99
2022-08-20T06:14:54.798Z,99.99
2022-08-20T06:15:54.801Z,99.99
2022-08-20T06:16:57.733Z,99.99
2022-08-20T06:17:58.377Z,99.99
2022-08-20T06:18:54.763Z,99.99
2022-08-20T06:19:54.762Z,99.99
2022-08-20T06:20:54.750Z,99.99
2022-08-20T06:21:54.744Z,99.99
2022-08-20T06:22:54.714Z,99.99
2022-08-20T06:23:57.754Z,99.99
2022-08-20T06:24:55.717Z,99.99
2022-08-20T06:25:54.708Z,99.99
2022-08-20T06:26:54.683Z,99.99
2022-08-20T06:27:54.658Z,99.99
2022-08-20T06:28:54.645Z,99.99
2022-08-20T06:29:54.635Z,99.99
2022-08-20T06:30:54.628Z,99.99
2022-08-20T06:31:54.614Z,99.99
2022-08-20T06:32:54.618Z,99.99
2022-08-20T06:33:54.593Z,99.99
2022-08-20T06:34:54.583Z,99.99
2022-08-20T06:35:54.571Z,99.99
2022-08-20T06:36:54.560Z,99.99
2022-08-20T06:37:54.633Z,99.99
2022-08-20T06:38:54.551Z,99.99
2022-08-20T06:39:54.548Z,99.99
2022-08-20T06:40:54.518Z,99.99
2022-08-20T06:41:54.568Z,99.99
2022-08-20T06:42:54.513Z,99.99
2022-08-20T06:43:54.488Z,99.99
2022-08-20T06:44:54.480Z,99.99
2022-08-20T06:45:54.505Z,99.99
2022-08-20T06:46:54.454Z,99.99
2022-08-20T06:47:54.723Z,99.99
2022-08-20T06:48:54.438Z,99.99
2022-08-20T06:49:54.422Z,99.99
2022-08-20T06:50:54.452Z,99.99
2022-08-20T06:51:54.407Z,99.99
2022-08-20T06:52:54.402Z,99.99
2022-08-20T06:53:54.381Z,99.99
2022-08-20T06:54:54.367Z,99.99
2022-08-20T06:55:54.368Z,99.99
2022-08-20T06:56:54.393Z,99.99
2022-08-20T06:57:54.332Z,99.99
2022-08-20T06:58:54.343Z,99.99
2022-08-20T06:59:54.488Z,99.99
2022-08-20T07:00:54.350Z,99.99
2022-08-20T07:01:54.293Z,99.99
2022-08-20T07:02:54.319Z,99.99
2022-08-20T07:03:56.144Z,99.99
2022-08-20T07:04:54.271Z,99.99
2022-08-20T07:05:54.243Z,99.99
2022-08-20T07:06:54.245Z,99.99
2022-08-20T07:07:54.222Z,99.99
2022-08-20T07:08:54.236Z,99.99
2022-08-20T07:09:54.209Z,99.99
2022-08-20T07:10:54.219Z,99.99
2022-08-20T07:11:54.181Z,99.99
2022-08-20T07:12:54.231Z,99.99
2022-08-20T07:13:54.165Z,98.43
2022-08-20T07:14:54.163Z,99.29
2022-08-20T07:15:54.249Z,99.99
2022-08-20T07:16:54.136Z,99.99
2022-08-20T07:17:58.742Z,99.99
2022-08-20T07:18:55.107Z,99.99
2022-08-20T07:19:54.093Z,99.99
2022-08-20T07:20:54.104Z,99.99
2022-08-20T07:21:54.073Z,99.99
2022-08-20T07:22:54.069Z,99.99
2022-08-20T07:23:54.088Z,99.99
2022-08-20T07:24:54.058Z,98.08
2022-08-20T07:25:54.061Z,96.22
2022-08-20T07:26:56.905Z,97.49
2022-08-20T07:27:54.003Z,96.87
2022-08-20T07:28:53.994Z,96.22
2022-08-20T07:29:54.027Z,97.94
2022-08-20T07:30:56.940Z,96.91
2022-08-20T07:31:53.960Z,99.99
2022-08-20T07:32:54.060Z,98.83
2022-08-20T07:33:53.944Z,98.88
2022-08-20T07:34:53.953Z,98.43
2022-08-20T07:35:53.966Z,99.04
2022-08-20T07:36:53.916Z,99.33
2022-08-20T07:37:53.894Z,98.01
2022-08-20T07:38:53.904Z,99.74
2022-08-20T07:39:53.935Z,96.75
2022-08-20T07:40:53.875Z,98.52
2022-08-20T07:41:56.579Z,99.14
2022-08-20T07:42:53.895Z,99.55
2022-08-20T07:43:53.848Z,98.23
2022-08-20T07:44:53.835Z,99.90
2022-08-20T07:45:53.812Z,97.11
2022-08-20T07:46:53.801Z,97.51
2022-08-20T07:47:53.791Z,97.56
2022-08-20T07:48:53.812Z,95.67
2022-08-20T07:49:53.857Z,97.80
2022-08-20T07:50:53.756Z,96.59
2022-08-20T07:51:53.752Z,99.48
2022-08-20T07:52:53.738Z,99.99
2022-08-20T07:53:53.788Z,99.99
2022-08-20T07:54:53.739Z,99.99
2022-08-20T07:55:59.289Z,99.99
2022-08-20T07:56:54.698Z,99.99
2022-08-20T07:57:53.683Z,99.99
2022-08-20T07:58:53.673Z,99.99
2022-08-20T07:59:53.660Z,99.99
2022-08-20T08:00:53.754Z,99.99
2022-08-20T08:01:53.646Z,99.99
2022-08-20T08:02:53.625Z,99.99
2022-08-20T08:03:53.621Z,99.99
2022-08-20T08:04:53.606Z,99.99
2022-08-20T08:05:53.593Z,99.99
2022-08-20T08:06:53.644Z,99.99
2022-08-20T08:07:53.593Z,99.99
2022-08-20T08:08:53.562Z,99.99
2022-08-20T08:09:53.609Z,99.99
2022-08-20T08:10:53.543Z,99.99
2022-08-20T08:11:53.528Z,99.99
2022-08-20T08:12:53.558Z,99.99
2022-08-20T08:13:53.549Z,99.99
2022-08-20T08:14:53.496Z,99.99
2022-08-20T08:15:53.507Z,99.99
2022-08-20T08:16:53.548Z,99.99
2022-08-20T08:17:53.467Z,99.99
2022-08-20T08:18:53.453Z,99.99
2022-08-20T08:19:53.456Z,99.99
2022-08-20T08:20:53.454Z,99.99
2022-08-20T08:21:53.423Z,99.99
2022-08-20T08:22:53.453Z,99.99
2022-08-20T08:23:53.443Z,99.99
2022-08-20T08:24:56.864Z,99.99
2022-08-20T08:25:53.377Z,99.65
2022-08-20T08:26:53.390Z,98.24
2022-08-20T08:27:53.418Z,99.01
2022-08-20T08:28:53.351Z,95.31
2022-08-20T08:29:53.332Z,97.09
2022-08-20T08:30:53.325Z,98.82
2022-08-20T08:31:53.313Z,99.07
2022-08-20T08:32:53.323Z,95.22
2022-08-20T08:33:53.323Z,98.91
2022-08-20T08:34:53.284Z,99.97
2022-08-20T08:35:53.274Z,96.73
2022-08-20T08:36:53.261Z,94.26
2022-08-20T08:37:53.287Z,95.73
2022-08-20T08:38:53.248Z,95.27
2022-08-20T08:39:53.323Z,98.41
2022-08-20T08:40:59.188Z,97.25
2022-08-20T08:41:54.206Z,97.36
2022-08-20T08:42:53.198Z,95.14
2022-08-20T08:43:53.482Z,95.90
2022-08-20T08:44:53.176Z,97.91
2022-08-20T08:45:53.174Z,98.16
2022-08-20T08:46:53.150Z,99.42
2022-08-20T08:47:53.137Z,97.47
2022-08-20T08:48:53.131Z,92.58
2022-08-20T08:49:53.127Z,94.70
2022-08-20T08:50:54.698Z,97.13
2022-08-20T08:51:53.138Z,93.76
2022-08-20T08:52:53.111Z,93.90
2022-08-20T08:53:53.074Z,92.13
2022-08-20T08:54:53.092Z,93.02
2022-08-20T08:55:53.049Z,94.08
2022-08-20T08:56:53.039Z,94.59
2022-08-20T08:57:53.071Z,92.63
2022-08-20T08:58:53.017Z,90.34
2022-08-20T09:00:03.803Z,94.53
2022-08-20T09:00:56.653Z,95.61
2022-08-20T09:01:56.578Z,94.35
2022-08-20T09:02:53.260Z,93.80
2022-08-20T09:03:52.977Z,88.90
2022-08-20T09:04:52.975Z,91.37
2022-08-20T09:05:52.950Z,91.17
2022-08-20T09:06:52.942Z,93.38
2022-08-20T09:07:53.151Z,90.62
2022-08-20T09:08:52.909Z,93.08
2022-08-20T09:09:52.904Z,95.10
2022-08-20T09:10:52.949Z,94.79
2022-08-20T09:11:54.143Z,95.75
2022-08-20T09:12:52.876Z,94.94
2022-08-20T09:13:52.856Z,93.23
2022-08-20T09:14:52.856Z,94.24
2022-08-20T09:15:52.839Z,92.27
2022-08-20T09:16:53.587Z,92.47
2022-08-20T09:17:52.952Z,91.02
2022-08-20T09:18:52.803Z,89.95
2022-08-20T09:19:52.799Z,92.38
2022-08-20T09:20:52.777Z,91.37
2022-08-20T09:21:52.771Z,91.17
2022-08-20T09:22:52.837Z,89.45
2022-08-20T09:23:52.759Z,90.14
2022-08-20T09:24:52.733Z,92.42
2022-08-20T09:25:52.728Z,90.77
2022-08-20T09:26:52.714Z,89.79
2022-08-20T09:27:52.707Z,91.15
2022-08-20T09:28:52.745Z,92.50
2022-08-20T09:29:52.688Z,90.63
2022-08-20T09:30:52.670Z,91.12
2022-08-20T09:31:52.663Z,94.26
2022-08-20T09:32:52.692Z,92.58
2022-08-20T09:33:52.643Z,91.42
2022-08-20T09:34:52.711Z,92.61
2022-08-20T09:35:53.585Z,93.88
2022-08-20T09:36:52.605Z,92.69
2022-08-20T09:37:52.677Z,87.76
2022-08-20T09:38:52.600Z,89.47
2022-08-20T09:39:52.656Z,85.44
2022-08-20T09:40:52.584Z,87.25
2022-08-20T09:41:52.629Z,87.96
2022-08-20T09:42:52.543Z,85.24
2022-08-20T09:43:52.832Z,86.67
2022-08-20T09:44:52.516Z,88.89
2022-08-20T09:45:52.514Z,89.91
2022-08-20T09:46:52.511Z,90.59
2022-08-20T09:47:55.043Z,87.82
2022-08-20T09:48:52.503Z,88.82
2022-08-20T09:49:52.471Z,87.85
2022-08-20T09:50:52.458Z,89.81
2022-08-20T09:51:52.444Z,90.77
2022-08-20T09:52:53.647Z,91.47
2022-08-20T09:53:52.433Z,91.37
2022-08-20T09:54:52.437Z,89.95
2022-08-20T09:55:52.406Z,90.28
2022-08-20T09:56:52.402Z,91.14
2022-08-20T09:57:52.646Z,92.91
2022-08-20T09:58:52.372Z,94.04
2022-08-20T09:59:52.364Z,92.90
2022-08-20T10:00:52.461Z,89.79
2022-08-20T10:01:52.394Z,87.43
2022-08-20T10:02:52.343Z,90.81
2022-08-20T10:03:52.331Z,91.72
2022-08-20T10:04:52.301Z,86.20
2022-08-20T10:05:52.294Z,89.59
2022-08-20T10:06:52.305Z,86.72
2022-08-20T10:07:52.288Z,87.22
2022-08-20T10:08:52.272Z,86.82
2022-08-20T10:09:52.261Z,87.62
2022-08-20T10:10:52.244Z,86.12
2022-08-20T10:11:52.233Z,87.22
2022-08-20T10:12:54.886Z,87.28
2022-08-20T10:13:52.206Z,86.98
2022-08-20T10:14:52.196Z,87.58
2022-08-20T10:15:52.191Z,82.70
2022-08-20T10:16:52.170Z,84.75
2022-08-20T10:17:52.285Z,84.09
2022-08-20T10:18:52.279Z,86.40
2022-08-20T10:19:52.146Z,88.87
2022-08-20T10:20:52.136Z,87.54
2022-08-20T10:21:52.132Z,86.60
2022-08-20T10:22:52.109Z,85.24
2022-08-20T10:23:52.100Z,85.96
2022-08-20T10:24:52.095Z,86.60
2022-08-20T10:25:52.094Z,84.37
2022-08-20T10:26:52.076Z,86.87
2022-08-20T10:27:52.262Z,87.77
2022-08-20T10:28:52.041Z,86.46
2022-08-20T10:29:52.033Z,87.05
2022-08-20T10:30:52.038Z,87.80
2022-08-20T10:31:52.019Z,88.24
2022-08-20T10:32:52.037Z,87.94
2022-08-20T10:33:51.989Z,89.45
2022-08-20T10:34:51.979Z,90.56
2022-08-20T10:35:53.278Z,90.06
2022-08-20T10:36:52.971Z,91.17
2022-08-20T10:37:52.031Z,88.99
2022-08-20T10:38:51.957Z,89.31
2022-08-20T10:39:51.973Z,90.48
2022-08-20T10:40:52.520Z,87.11
2022-08-20T10:41:51.912Z,87.76
2022-08-20T10:42:51.906Z,87.80
2022-08-20T10:43:51.879Z,89.11
2022-08-20T10:44:51.871Z,88.06
2022-08-20T10:45:51.883Z,90.09
2022-08-20T10:46:51.911Z,87.73
2022-08-20T10:47:52.996Z,90.11
2022-08-20T10:48:51.825Z,87.51
2022-08-20T10:49:51.956Z,87.02
2022-08-20T10:50:51.805Z,84.95
2022-08-20T10:51:51.793Z,88.22
2022-08-20T10:52:51.835Z,88.07
2022-08-20T10:53:51.786Z,85.70
2022-08-20T10:54:51.764Z,86.95
2022-08-20T10:55:51.756Z,87.13
2022-08-20T10:56:51.743Z,87.63
2022-08-20T10:57:51.826Z,87.84
2022-08-20T10:58:51.740Z,87.74
2022-08-20T10:59:51.723Z,87.94
2022-08-20T11:00:51.696Z,87.07
2022-08-20T11:01:51.735Z,87.68
2022-08-20T11:02:51.671Z,88.08
2022-08-20T11:03:51.662Z,87.78
2022-08-20T11:04:51.658Z,87.72
2022-08-20T11:05:51.676Z,88.47
2022-08-20T11:06:51.632Z,89.28
2022-08-20T11:07:59.762Z,89.12
2022-08-20T11:08:52.645Z,89.92
2022-08-20T11:09:51.593Z,89.22
2022-08-20T11:10:51.585Z,88.26
2022-08-20T11:11:51.672Z,87.96
2022-08-20T11:12:51.569Z,91.03
2022-08-20T11:13:51.553Z,89.83
2022-08-20T11:14:51.559Z,91.39
2022-08-20T11:15:51.531Z,90.85
2022-08-20T11:16:51.526Z,91.25
2022-08-20T11:17:51.557Z,89.34
2022-08-20T11:18:51.507Z,90.04
2022-08-20T11:19:51.500Z,90.14
2022-08-20T11:20:51.500Z,88.02
2022-08-20T11:21:51.468Z,88.93
2022-08-20T11:22:51.455Z,90.85
2022-08-20T11:23:51.466Z,90.06
2022-08-20T11:24:51.437Z,88.34
2022-08-20T11:25:51.435Z,89.01
2022-08-20T11:26:51.415Z,87.74
2022-08-20T11:27:51.418Z,87.98
2022-08-20T11:28:51.397Z,89.39
2022-08-20T11:29:51.424Z,88.89
2022-08-20T11:30:51.375Z,88.12
2022-08-20T11:31:51.384Z,89.03
2022-08-20T11:32:51.354Z,89.09
2022-08-20T11:33:51.346Z,87.84
2022-08-20T11:34:51.333Z,90.07
2022-08-20T11:35:51.319Z,90.30
2022-08-20T11:36:51.355Z,88.01
2022-08-20T11:37:51.299Z,86.68
2022-08-20T11:38:51.287Z,88.11
2022-08-20T11:39:51.327Z,86.98
2022-08-20T11:40:51.270Z,82.37
2022-08-20T11:41:55.428Z,84.83
2022-08-20T11:43:12.934Z,84.57
2022-08-20T11:44:17.564Z,82.40
2022-08-20T11:44:52.221Z,84.53
2022-08-20T11:45:51.216Z,86.50
2022-08-20T11:46:51.199Z,84.23
2022-08-20T11:47:51.189Z,84.88
2022-08-20T11:48:51.191Z,84.57
2022-08-20T11:49:51.179Z,86.32
2022-08-20T11:50:51.175Z,84.81
2022-08-20T11:51:51.148Z,84.81
2022-08-20T11:52:51.134Z,86.87
2022-08-20T11:53:51.120Z,87.77
2022-08-20T11:54:54.753Z,85.90
2022-08-20T11:55:51.102Z,86.71
2022-08-20T11:56:51.091Z,87.71
2022-08-20T11:57:51.080Z,88.52
2022-08-20T11:58:51.069Z,89.03
2022-08-20T11:59:51.056Z,87.37
2022-08-20T12:00:51.097Z,88.02
2022-08-20T12:02:02.760Z,86.91
2022-08-20T12:02:52.260Z,87.82
2022-08-20T12:03:51.019Z,86.65
2022-08-20T12:04:51.006Z,87.85
2022-08-20T12:05:50.998Z,87.15
2022-08-20T12:06:51.017Z,88.06
2022-08-20T12:07:50.965Z,88.92
2022-08-20T12:08:50.963Z,87.82
2022-08-20T12:09:51.469Z,87.41
2022-08-20T12:10:50.935Z,87.25
2022-08-20T12:11:50.926Z,89.06
2022-08-20T12:12:50.973Z,88.62
2022-08-20T12:13:50.912Z,87.71
2022-08-20T12:14:50.894Z,88.56
2022-08-20T12:15:50.890Z,88.20
2022-08-20T12:16:50.873Z,88.40
2022-08-20T12:17:50.877Z,88.08
2022-08-20T12:18:50.891Z,88.53
2022-08-20T12:19:50.844Z,90.14
2022-08-20T12:20:50.935Z,89.98
2022-08-20T12:21:50.823Z,90.85
2022-08-20T12:22:50.992Z,90.50
2022-08-20T12:23:50.813Z,89.50
2022-08-20T12:24:50.793Z,89.79
2022-08-20T12:25:50.817Z,88.95
2022-08-20T12:26:50.771Z,88.54
2022-08-20T12:27:50.842Z,87.74
2022-08-20T12:28:50.745Z,86.57
2022-08-20T12:29:50.742Z,87.88
2022-08-20T12:30:51.162Z,89.50
2022-08-20T12:31:51.525Z,88.30
2022-08-20T12:32:50.825Z,87.65
2022-08-20T12:33:50.695Z,86.85
2022-08-20T12:34:50.685Z,87.71
2022-08-20T12:35:51.993Z,85.96
2022-08-20T12:36:50.691Z,84.45
2022-08-20T12:37:50.649Z,84.03
2022-08-20T12:38:50.645Z,85.98
2022-08-20T12:39:50.725Z,87.35
2022-08-20T12:40:50.612Z,86.58
2022-08-20T12:41:50.635Z,87.09
2022-08-20T12:42:50.634Z,89.21
2022-08-20T12:43:50.714Z,89.05
2022-08-20T12:44:50.572Z,88.14
2022-08-20T12:45:50.570Z,88.14
2022-08-20T12:46:50.656Z,88.73
2022-08-20T12:47:50.556Z,87.82
2022-08-20T12:48:50.527Z,87.82
2022-08-20T12:49:50.517Z,87.41
2022-08-20T12:50:50.590Z,89.88
2022-08-20T12:51:50.498Z,87.86
2022-08-20T12:52:50.612Z,90.73